createdAt,value
2018-11-29T00:00:06.706Z,16.92
2018-11-29T00:00:19.113Z,16.92
2018-11-29T00:00:31.507Z,16.92
2018-11-29T00:00:43.915Z,16.92
2018-11-29T00:00:56.279Z,16.92
2018-11-29T00:01:08.643Z,16.92
2018-11-29T00:01:21.013Z,16.92
2018-11-29T00:01:33.384Z,16.92
2018-11-29T00:01:45.756Z,16.92
2018-11-29T00:01:58.106Z,16.92
2018-11-29T00:02:10.482Z,16.92
2018-11-29T00:02:22.877Z,16.92
2018-11-29T00:02:35.245Z,16.92
2018-11-29T00:02:47.622Z,16.92
2018-11-29T00:03:00.001Z,16.92
2018-11-29T00:03:12.367Z,16.92
2018-11-29T00:03:24.738Z,16.92
2018-11-29T00:03:37.090Z,16.92
2018-11-29T00:03:49.445Z,16.92
2018-11-29T00:04:01.792Z,16.92
2018-11-29T00:04:14.193Z,16.92
2018-11-29T00:04:26.548Z,16.92
2018-11-29T00:04:39.207Z,16.92
2018-11-29T00:04:51.586Z,16.92
2018-11-29T00:05:03.972Z,16.92
2018-11-29T00:05:16.451Z,16.92
2018-11-29T00:05:28.808Z,16.92
2018-11-29T00:05:41.165Z,16.92
2018-11-29T00:05:53.610Z,16.92
2018-11-29T00:06:05.976Z,16.92
2018-11-29T00:06:18.352Z,16.92
2018-11-29T00:06:30.693Z,16.92
2018-11-29T00:06:43.059Z,16.92
2018-11-29T00:06:55.428Z,16.92
2018-11-29T00:07:07.806Z,16.92
2018-11-29T00:07:20.164Z,16.92
2018-11-29T00:07:32.566Z,16.92
2018-11-29T00:07:44.970Z,16.92
2018-11-29T00:07:57.340Z,16.92
2018-11-29T00:08:09.741Z,16.92
2018-11-29T00:08:22.117Z,16.92
2018-11-29T00:08:34.492Z,16.92
2018-11-29T00:08:46.860Z,16.92
2018-11-29T00:08:59.227Z,16.92
2018-11-29T00:09:11.610Z,16.92
2018-11-29T00:09:24.007Z,17.87
2018-11-29T00:09:36.374Z,17.87
2018-11-29T00:09:48.734Z,17.87
2018-11-29T00:10:01.107Z,17.87
2018-11-29T00:10:13.454Z,17.87
2018-11-29T00:10:26.049Z,17.87
2018-11-29T00:10:38.433Z,17.87
2018-11-29T00:10:50.798Z,17.87
2018-11-29T00:11:03.166Z,17.87
2018-11-29T00:11:15.587Z,17.87
2018-11-29T00:11:27.951Z,17.87
2018-11-29T00:11:40.332Z,17.87
2018-11-29T00:11:52.723Z,17.87
2018-11-29T00:12:05.087Z,17.87
2018-11-29T00:12:17.450Z,17.87
2018-11-29T00:12:29.810Z,17.87
2018-11-29T00:12:42.307Z,17.87
2018-11-29T00:12:54.692Z,17.87
2018-11-29T00:13:07.078Z,17.87
2018-11-29T00:13:19.448Z,17.87
2018-11-29T00:13:31.835Z,17.87
2018-11-29T00:13:44.361Z,17.87
2018-11-29T00:13:56.728Z,17.87
2018-11-29T00:14:09.111Z,17.87
2018-11-29T00:14:21.487Z,17.87
2018-11-29T00:14:33.850Z,17.87
2018-11-29T00:14:46.209Z,17.87
2018-11-29T00:14:58.577Z,17.87
2018-11-29T00:15:10.990Z,17.87
2018-11-29T00:15:23.408Z,17.87
2018-11-29T00:15:35.781Z,17.87
2018-11-29T00:15:48.154Z,17.87
2018-11-29T00:16:00.531Z,17.87
2018-11-29T00:16:12.898Z,17.87
2018-11-29T00:16:25.270Z,17.87
2018-11-29T00:16:37.617Z,17.87
2018-11-29T00:16:49.967Z,17.87
2018-11-29T00:17:02.361Z,17.87
2018-11-29T00:17:14.728Z,17.87
2018-11-29T00:17:28.159Z,17.87
2018-11-29T00:17:40.683Z,17.87
2018-11-29T00:17:53.099Z,17.87
2018-11-29T00:18:05.509Z,17.87
2018-11-29T00:18:17.881Z,17.87
2018-11-29T00:18:30.236Z,17.87
2018-11-29T00:18:42.603Z,17.87
2018-11-29T00:18:54.959Z,17.87
2018-11-29T00:19:07.311Z,17.87
2018-11-29T00:19:19.666Z,17.87
2018-11-29T00:19:32.031Z,18.37
2018-11-29T00:19:44.400Z,18.37
2018-11-29T00:19:56.753Z,18.37
2018-11-29T00:20:09.115Z,18.37
2018-11-29T00:20:21.498Z,18.37
2018-11-29T00:20:33.871Z,18.37
2018-11-29T00:20:46.267Z,18.37
2018-11-29T00:20:58.631Z,18.37
2018-11-29T00:21:10.985Z,18.37
2018-11-29T00:21:23.346Z,18.37
2018-11-29T00:21:35.697Z,18.37
2018-11-29T00:21:48.055Z,18.37
2018-11-29T00:22:00.465Z,18.37
2018-11-29T00:22:12.825Z,18.37
2018-11-29T00:22:25.185Z,18.37
2018-11-29T00:22:37.524Z,18.37
2018-11-29T00:22:50.101Z,18.37
2018-11-29T00:23:02.470Z,18.37
2018-11-29T00:23:14.851Z,18.37
2018-11-29T00:23:27.450Z,18.37
2018-11-29T00:23:39.803Z,18.37
2018-11-29T00:23:52.151Z,18.37
2018-11-29T00:24:04.525Z,18.37
2018-11-29T00:24:16.864Z,18.37
2018-11-29T00:24:29.213Z,18.37
2018-11-29T00:24:41.548Z,18.37
2018-11-29T00:24:53.922Z,18.37
2018-11-29T00:25:06.274Z,18.37
2018-11-29T00:25:18.679Z,18.37
2018-11-29T00:25:31.029Z,18.37
2018-11-29T00:25:43.398Z,18.37
2018-11-29T00:25:55.896Z,18.37
2018-11-29T00:26:08.261Z,18.37
2018-11-29T00:26:20.607Z,18.37
2018-11-29T00:26:32.964Z,18.37
2018-11-29T00:26:45.329Z,18.37
2018-11-29T00:26:57.681Z,18.37
2018-11-29T00:27:10.025Z,18.37
2018-11-29T00:27:22.691Z,18.37
2018-11-29T00:27:35.065Z,18.37
2018-11-29T00:27:47.414Z,18.37
2018-11-29T00:27:59.775Z,18.37
2018-11-29T00:28:12.167Z,18.37
2018-11-29T00:28:24.550Z,18.37
2018-11-29T00:28:36.924Z,18.37
2018-11-29T00:28:49.283Z,18.37
2018-11-29T00:29:01.649Z,18.37
2018-11-29T00:29:14.009Z,18.37
2018-11-29T00:29:26.367Z,19.38
2018-11-29T00:29:38.777Z,19.38
2018-11-29T00:29:51.137Z,19.38
2018-11-29T00:30:03.488Z,19.38
2018-11-29T00:30:15.870Z,19.38
2018-11-29T00:30:28.261Z,19.38
2018-11-29T00:30:40.617Z,19.38
2018-11-29T00:30:53.114Z,19.38
2018-11-29T00:31:05.468Z,19.38
2018-11-29T00:31:17.808Z,19.38
2018-11-29T00:31:30.164Z,19.38
2018-11-29T00:31:42.862Z,19.38
2018-11-29T00:31:55.203Z,19.38
2018-11-29T00:32:07.561Z,19.38
2018-11-29T00:32:19.899Z,19.38
2018-11-29T00:32:32.260Z,19.38
2018-11-29T00:32:44.632Z,19.38
2018-11-29T00:32:57.017Z,19.38
2018-11-29T00:33:09.394Z,19.38
2018-11-29T00:33:21.754Z,19.38
2018-11-29T00:33:34.109Z,19.38
2018-11-29T00:33:46.462Z,19.38
2018-11-29T00:33:58.823Z,19.38
2018-11-29T00:34:11.183Z,19.38
2018-11-29T00:34:23.539Z,19.38
2018-11-29T00:34:35.904Z,19.38
2018-11-29T00:34:48.270Z,19.38
2018-11-29T00:35:00.664Z,19.38
2018-11-29T00:35:13.040Z,19.38
2018-11-29T00:35:25.399Z,19.38
2018-11-29T00:35:37.763Z,19.38
2018-11-29T00:35:50.157Z,19.38
2018-11-29T00:36:02.521Z,19.38
2018-11-29T00:36:14.882Z,19.38
2018-11-29T00:36:27.245Z,19.38
2018-11-29T00:36:39.592Z,19.38
2018-11-29T00:36:52.012Z,19.38
2018-11-29T00:37:04.384Z,19.38
2018-11-29T00:37:17.510Z,19.38
2018-11-29T00:37:29.876Z,19.38
2018-11-29T00:37:42.327Z,19.38
2018-11-29T00:37:54.708Z,19.38
2018-11-29T00:38:07.052Z,19.38
2018-11-29T00:38:19.453Z,19.38
2018-11-29T00:38:31.806Z,19.38
2018-11-29T00:38:44.504Z,19.38
2018-11-29T00:38:56.863Z,19.38
2018-11-29T00:39:09.220Z,19.38
2018-11-29T00:39:21.711Z,19.38
2018-11-29T00:39:34.075Z,17.7
2018-11-29T00:39:46.436Z,17.7
2018-11-29T00:39:58.793Z,17.7
2018-11-29T00:40:11.162Z,17.7
2018-11-29T00:40:23.563Z,17.7
2018-11-29T00:40:35.929Z,17.7
2018-11-29T00:40:48.286Z,17.7
2018-11-29T00:41:00.633Z,17.7
2018-11-29T00:41:13.179Z,17.7
2018-11-29T00:41:25.529Z,17.7
2018-11-29T00:41:37.882Z,17.7
2018-11-29T00:41:50.256Z,17.7
2018-11-29T00:42:02.614Z,17.7
2018-11-29T00:42:14.972Z,17.7
2018-11-29T00:42:27.357Z,17.7
2018-11-29T00:42:39.717Z,17.7
2018-11-29T00:42:52.224Z,17.7
2018-11-29T00:43:04.600Z,17.7
2018-11-29T00:43:16.964Z,17.7
2018-11-29T00:43:29.475Z,17.7
2018-11-29T00:43:41.982Z,17.7
2018-11-29T00:43:54.336Z,17.7
2018-11-29T00:44:06.702Z,17.7
2018-11-29T00:44:19.182Z,17.7
2018-11-29T00:44:31.558Z,17.7
2018-11-29T00:44:43.913Z,17.7
2018-11-29T00:44:56.271Z,17.7
2018-11-29T00:45:08.791Z,17.7
2018-11-29T00:45:21.195Z,17.7
2018-11-29T00:45:33.626Z,17.7
2018-11-29T00:45:45.982Z,17.7
2018-11-29T00:45:58.358Z,17.7
2018-11-29T00:46:10.707Z,17.7
2018-11-29T00:46:23.074Z,17.7
2018-11-29T00:46:35.435Z,17.7
2018-11-29T00:46:47.794Z,17.7
2018-11-29T00:47:00.151Z,17.7
2018-11-29T00:47:12.520Z,17.7
2018-11-29T00:47:24.868Z,17.7
2018-11-29T00:47:37.252Z,17.7
2018-11-29T00:47:49.608Z,17.7
2018-11-29T00:48:01.960Z,17.7
2018-11-29T00:48:14.313Z,17.7
2018-11-29T00:48:26.675Z,17.7
2018-11-29T00:48:39.036Z,17.7
2018-11-29T00:48:51.408Z,17.7
2018-11-29T00:49:03.762Z,17.7
2018-11-29T00:49:16.120Z,17.7
2018-11-29T00:49:28.470Z,19.87
2018-11-29T00:49:40.839Z,19.87
2018-11-29T00:49:53.199Z,19.87
2018-11-29T00:50:05.978Z,19.87
2018-11-29T00:50:18.365Z,19.87
2018-11-29T00:50:30.743Z,19.87
2018-11-29T00:50:43.115Z,19.87
2018-11-29T00:50:56.426Z,19.87
2018-11-29T00:51:08.821Z,19.87
2018-11-29T00:51:21.204Z,19.87
2018-11-29T00:51:33.599Z,19.87
2018-11-29T00:51:45.946Z,19.87
2018-11-29T00:51:58.418Z,19.87
2018-11-29T00:52:10.771Z,19.87
2018-11-29T00:52:23.149Z,19.87
2018-11-29T00:52:35.506Z,19.87
2018-11-29T00:52:48.006Z,19.87
2018-11-29T00:53:00.364Z,19.87
2018-11-29T00:53:12.730Z,19.87
2018-11-29T00:53:25.090Z,19.87
2018-11-29T00:53:37.485Z,19.87
2018-11-29T00:53:49.846Z,19.87
2018-11-29T00:54:02.212Z,19.87
2018-11-29T00:54:14.574Z,19.87
2018-11-29T00:54:26.959Z,19.87
2018-11-29T00:54:39.356Z,19.87
2018-11-29T00:54:51.714Z,19.87
2018-11-29T00:55:04.068Z,19.87
2018-11-29T00:55:16.488Z,19.87
2018-11-29T00:55:29.221Z,19.87
2018-11-29T00:55:41.731Z,19.87
2018-11-29T00:55:54.089Z,19.87
2018-11-29T00:56:06.475Z,19.87
2018-11-29T00:56:18.833Z,19.87
2018-11-29T00:56:31.181Z,19.87
2018-11-29T00:56:43.698Z,19.87
2018-11-29T00:56:56.056Z,19.87
2018-11-29T00:57:08.420Z,19.87
2018-11-29T00:57:20.826Z,19.87
2018-11-29T00:57:33.188Z,19.87
2018-11-29T00:57:45.553Z,19.87
2018-11-29T00:57:57.896Z,19.87
2018-11-29T00:58:10.299Z,19.87
2018-11-29T00:58:22.801Z,19.87
2018-11-29T00:58:35.182Z,19.87
2018-11-29T00:58:47.533Z,19.87
2018-11-29T00:58:59.930Z,19.87
2018-11-29T00:59:12.277Z,19.87
2018-11-29T00:59:24.641Z,19.04
2018-11-29T00:59:36.987Z,19.04
2018-11-29T00:59:49.350Z,19.04
2018-11-29T01:00:01.722Z,19.04
2018-11-29T01:00:14.114Z,19.04
2018-11-29T01:00:26.517Z,19.04
2018-11-29T01:00:38.893Z,19.04
2018-11-29T01:00:51.258Z,19.04
2018-11-29T01:01:03.634Z,19.04
2018-11-29T01:01:16.000Z,19.04
2018-11-29T01:01:28.374Z,19.04
2018-11-29T01:01:40.722Z,19.04
2018-11-29T01:01:53.091Z,19.04
2018-11-29T01:02:05.461Z,19.04
2018-11-29T01:02:17.851Z,19.04
2018-11-29T01:02:30.209Z,19.04
2018-11-29T01:02:42.571Z,19.04
2018-11-29T01:02:54.948Z,19.04
2018-11-29T01:03:07.321Z,19.04
2018-11-29T01:03:19.876Z,19.04
2018-11-29T01:03:32.286Z,19.04
2018-11-29T01:03:44.646Z,19.04
2018-11-29T01:03:56.994Z,19.04
2018-11-29T01:04:09.910Z,19.04
2018-11-29T01:04:22.274Z,19.04
2018-11-29T01:04:35.061Z,19.04
2018-11-29T01:04:47.415Z,19.04
2018-11-29T01:04:59.798Z,19.04
2018-11-29T01:05:12.157Z,19.04
2018-11-29T01:05:24.648Z,19.04
2018-11-29T01:05:37.012Z,19.04
2018-11-29T01:05:49.423Z,19.04
2018-11-29T01:06:01.778Z,19.04
2018-11-29T01:06:14.139Z,19.04
2018-11-29T01:06:26.486Z,19.04
2018-11-29T01:06:38.858Z,19.04
2018-11-29T01:06:51.214Z,19.04
2018-11-29T01:07:03.574Z,19.04
2018-11-29T01:07:15.916Z,19.04
2018-11-29T01:07:28.276Z,19.04
2018-11-29T01:07:40.671Z,19.04
2018-11-29T01:07:53.049Z,19.04
2018-11-29T01:08:05.425Z,19.04
2018-11-29T01:08:17.789Z,19.04
2018-11-29T01:08:30.146Z,19.04
2018-11-29T01:08:42.507Z,19.04
2018-11-29T01:08:54.876Z,19.04
2018-11-29T01:09:07.247Z,19.04
2018-11-29T01:09:20.008Z,19.04
2018-11-29T01:09:32.372Z,19.32
2018-11-29T01:09:44.741Z,19.32
2018-11-29T01:09:57.103Z,19.32
2018-11-29T01:10:09.516Z,19.32
2018-11-29T01:10:22.036Z,19.32
2018-11-29T01:10:34.399Z,19.32
2018-11-29T01:10:46.779Z,19.32
2018-11-29T01:10:59.142Z,19.32
2018-11-29T01:11:11.688Z,19.32
2018-11-29T01:11:24.050Z,19.32
2018-11-29T01:11:36.398Z,19.32
2018-11-29T01:11:48.763Z,19.32
2018-11-29T01:12:01.126Z,19.32
2018-11-29T01:12:13.469Z,19.32
2018-11-29T01:12:25.845Z,19.32
2018-11-29T01:12:38.246Z,19.32
2018-11-29T01:12:50.806Z,19.32
2018-11-29T01:13:03.178Z,19.32
2018-11-29T01:13:15.553Z,19.32
2018-11-29T01:13:27.915Z,19.32
2018-11-29T01:13:40.282Z,19.32
2018-11-29T01:13:52.638Z,19.32
2018-11-29T01:14:04.984Z,19.32
2018-11-29T01:14:17.365Z,19.32
2018-11-29T01:14:29.878Z,19.32
2018-11-29T01:14:42.241Z,19.32
2018-11-29T01:14:54.602Z,19.32
2018-11-29T01:15:07.016Z,19.32
2018-11-29T01:15:19.392Z,19.32
2018-11-29T01:15:31.771Z,19.32
2018-11-29T01:15:44.119Z,19.32
2018-11-29T01:15:56.484Z,19.32
2018-11-29T01:16:08.888Z,19.32
2018-11-29T01:16:21.249Z,19.32
2018-11-29T01:16:33.636Z,19.32
2018-11-29T01:16:45.993Z,19.32
2018-11-29T01:16:58.353Z,19.32
2018-11-29T01:17:10.716Z,19.32
2018-11-29T01:17:23.066Z,19.32
2018-11-29T01:17:35.454Z,19.32
2018-11-29T01:17:47.980Z,19.32
2018-11-29T01:18:00.346Z,19.32
2018-11-29T01:18:12.711Z,19.32
2018-11-29T01:18:25.071Z,19.32
2018-11-29T01:18:37.474Z,19.32
2018-11-29T01:18:49.844Z,19.32
2018-11-29T01:19:02.197Z,19.32
2018-11-29T01:19:14.559Z,19.32
2018-11-29T01:19:26.924Z,18.52
2018-11-29T01:19:39.321Z,18.52
2018-11-29T01:19:51.681Z,18.52
2018-11-29T01:20:04.057Z,18.52
2018-11-29T01:20:16.964Z,18.52
2018-11-29T01:20:29.347Z,18.52
2018-11-29T01:20:41.711Z,18.52
2018-11-29T01:20:54.085Z,18.52
2018-11-29T01:21:06.446Z,18.52
2018-11-29T01:21:18.815Z,18.52
2018-11-29T01:21:31.159Z,18.52
2018-11-29T01:21:43.530Z,18.52
2018-11-29T01:21:55.884Z,18.52
2018-11-29T01:22:08.289Z,18.52
2018-11-29T01:22:20.646Z,18.52
2018-11-29T01:22:33.003Z,18.52
2018-11-29T01:22:45.468Z,18.52
2018-11-29T01:22:57.843Z,18.52
2018-11-29T01:23:10.304Z,18.52
2018-11-29T01:23:22.815Z,18.52
2018-11-29T01:23:35.189Z,18.52
2018-11-29T01:23:47.723Z,18.52
2018-11-29T01:24:00.089Z,18.52
2018-11-29T01:24:12.446Z,18.52
2018-11-29T01:24:24.832Z,18.52
2018-11-29T01:24:37.184Z,18.52
2018-11-29T01:24:49.530Z,18.52
2018-11-29T01:25:01.888Z,18.52
2018-11-29T01:25:14.243Z,18.52
2018-11-29T01:25:26.628Z,18.52
2018-11-29T01:25:38.986Z,18.52
2018-11-29T01:25:51.339Z,18.52
2018-11-29T01:26:03.860Z,18.52
2018-11-29T01:26:16.215Z,18.52
2018-11-29T01:26:28.730Z,18.52
2018-11-29T01:26:41.114Z,18.52
2018-11-29T01:26:53.485Z,18.52
2018-11-29T01:27:05.841Z,18.52
2018-11-29T01:27:18.199Z,18.52
2018-11-29T01:27:30.561Z,18.52
2018-11-29T01:27:42.918Z,18.52
2018-11-29T01:27:55.291Z,18.52
2018-11-29T01:28:07.664Z,18.52
2018-11-29T01:28:20.032Z,18.52
2018-11-29T01:28:32.435Z,18.52
2018-11-29T01:28:44.787Z,18.52
2018-11-29T01:28:57.162Z,18.52
2018-11-29T01:29:09.529Z,18.52
2018-11-29T01:29:21.899Z,18.52
2018-11-29T01:29:34.250Z,17.23
2018-11-29T01:29:46.625Z,17.23
2018-11-29T01:29:58.969Z,17.23
2018-11-29T01:30:11.350Z,17.23
2018-11-29T01:30:23.736Z,17.23
2018-11-29T01:30:36.103Z,17.23
2018-11-29T01:30:48.888Z,17.23
2018-11-29T01:31:01.282Z,17.23
2018-11-29T01:31:13.623Z,17.23
2018-11-29T01:31:25.993Z,17.23
2018-11-29T01:31:38.344Z,17.23
2018-11-29T01:31:50.886Z,17.23
2018-11-29T01:32:03.224Z,17.23
2018-11-29T01:32:15.584Z,17.23
2018-11-29T01:32:27.964Z,17.23
2018-11-29T01:32:40.358Z,17.23
2018-11-29T01:32:52.730Z,17.23
2018-11-29T01:33:05.098Z,17.23
2018-11-29T01:33:17.472Z,17.23
2018-11-29T01:33:29.847Z,17.23
2018-11-29T01:33:42.206Z,17.23
2018-11-29T01:33:54.621Z,17.23
2018-11-29T01:34:06.981Z,17.23
2018-11-29T01:34:19.337Z,17.23
2018-11-29T01:34:31.739Z,17.23
2018-11-29T01:34:44.107Z,17.23
2018-11-29T01:34:56.470Z,17.23
2018-11-29T01:35:08.876Z,17.23
2018-11-29T01:35:21.503Z,17.23
2018-11-29T01:35:34.542Z,17.23
2018-11-29T01:35:46.903Z,17.23
2018-11-29T01:35:59.287Z,17.23
2018-11-29T01:36:11.644Z,17.23
2018-11-29T01:36:24.051Z,17.23
2018-11-29T01:36:36.414Z,17.23
2018-11-29T01:36:48.886Z,17.23
2018-11-29T01:37:01.259Z,17.23
2018-11-29T01:37:13.649Z,17.23
2018-11-29T01:37:26.011Z,17.23
2018-11-29T01:37:38.399Z,17.23
2018-11-29T01:37:50.796Z,17.23
2018-11-29T01:38:03.161Z,17.23
2018-11-29T01:38:15.521Z,17.23
2018-11-29T01:38:27.866Z,17.23
2018-11-29T01:38:40.382Z,17.23
2018-11-29T01:38:52.739Z,17.23
2018-11-29T01:39:05.096Z,17.23
2018-11-29T01:39:17.442Z,17.23
2018-11-29T01:39:29.802Z,19.35
2018-11-29T01:39:42.161Z,19.35
2018-11-29T01:39:54.535Z,19.35
2018-11-29T01:40:06.901Z,19.35
2018-11-29T01:40:19.341Z,19.35
2018-11-29T01:40:31.713Z,19.35
2018-11-29T01:40:44.095Z,19.35
2018-11-29T01:40:56.455Z,19.35
2018-11-29T01:41:09.061Z,19.35
2018-11-29T01:41:21.426Z,19.35
2018-11-29T01:41:33.790Z,19.35
2018-11-29T01:41:46.175Z,19.35
2018-11-29T01:41:58.531Z,19.35
2018-11-29T01:42:10.886Z,19.35
2018-11-29T01:42:23.257Z,19.35
2018-11-29T01:42:35.657Z,19.35
2018-11-29T01:42:48.186Z,19.35
2018-11-29T01:43:00.566Z,19.35
2018-11-29T01:43:12.919Z,19.35
2018-11-29T01:43:25.287Z,19.35
2018-11-29T01:43:37.656Z,19.35
2018-11-29T01:43:50.029Z,19.35
2018-11-29T01:44:02.544Z,19.35
2018-11-29T01:44:14.902Z,19.35
2018-11-29T01:44:27.424Z,19.35
2018-11-29T01:44:39.809Z,19.35
2018-11-29T01:44:52.163Z,19.35
2018-11-29T01:45:04.624Z,19.35
2018-11-29T01:45:16.974Z,19.35
2018-11-29T01:45:29.468Z,19.35
2018-11-29T01:45:41.830Z,19.35
2018-11-29T01:45:54.192Z,19.35
2018-11-29T01:46:06.554Z,19.35
2018-11-29T01:46:18.963Z,19.35
2018-11-29T01:46:31.318Z,19.35
2018-11-29T01:46:43.694Z,19.35
2018-11-29T01:46:56.038Z,19.35
2018-11-29T01:47:08.401Z,19.35
2018-11-29T01:47:20.783Z,19.35
2018-11-29T01:47:33.156Z,19.35
2018-11-29T01:47:45.504Z,19.35
2018-11-29T01:47:57.927Z,19.35
2018-11-29T01:48:10.280Z,19.35
2018-11-29T01:48:22.659Z,19.35
2018-11-29T01:48:35.008Z,19.35
2018-11-29T01:48:47.378Z,19.35
2018-11-29T01:48:59.720Z,19.35
2018-11-29T01:49:12.078Z,19.35
2018-11-29T01:49:24.438Z,19.35
2018-11-29T01:49:36.808Z,16.64
2018-11-29T01:49:49.162Z,16.64
2018-11-29T01:50:01.691Z,16.64
2018-11-29T01:50:14.064Z,16.64
2018-11-29T01:50:26.445Z,16.64
2018-11-29T01:50:38.804Z,16.64
2018-11-29T01:50:51.165Z,16.64
2018-11-29T01:51:03.524Z,16.64
2018-11-29T01:51:15.903Z,16.64
2018-11-29T01:51:28.277Z,16.64
2018-11-29T01:51:40.626Z,16.64
2018-11-29T01:51:53.079Z,16.64
2018-11-29T01:52:05.440Z,16.64
2018-11-29T01:52:17.819Z,16.64
2018-11-29T01:52:30.193Z,16.64
2018-11-29T01:52:42.566Z,16.64
2018-11-29T01:52:54.943Z,16.64
2018-11-29T01:53:07.329Z,16.64
2018-11-29T01:53:19.694Z,16.64
2018-11-29T01:53:32.058Z,16.64
2018-11-29T01:53:44.413Z,16.64
2018-11-29T01:53:56.781Z,16.64
2018-11-29T01:54:09.150Z,16.64
2018-11-29T01:54:21.522Z,16.64
2018-11-29T01:54:33.928Z,16.64
2018-11-29T01:54:46.294Z,16.64
2018-11-29T01:54:58.649Z,16.64
2018-11-29T01:55:11.030Z,16.64
2018-11-29T01:55:23.630Z,16.64
2018-11-29T01:55:36.126Z,16.64
2018-11-29T01:55:48.482Z,16.64
2018-11-29T01:56:00.837Z,16.64
2018-11-29T01:56:13.200Z,16.64
2018-11-29T01:56:25.611Z,16.64
2018-11-29T01:56:37.979Z,16.64
2018-11-29T01:56:50.496Z,16.64
2018-11-29T01:57:02.844Z,16.64
2018-11-29T01:57:15.200Z,16.64
2018-11-29T01:57:27.544Z,16.64
2018-11-29T01:57:39.943Z,16.64
2018-11-29T01:57:52.282Z,16.64
2018-11-29T01:58:04.648Z,16.64
2018-11-29T01:58:17.164Z,16.64
2018-11-29T01:58:29.557Z,16.64
2018-11-29T01:58:41.924Z,16.64
2018-11-29T01:58:54.274Z,16.64
2018-11-29T01:59:06.628Z,16.64
2018-11-29T01:59:19.026Z,16.64
2018-11-29T01:59:31.381Z,18.05
2018-11-29T01:59:43.751Z,18.05
2018-11-29T01:59:56.121Z,18.05
2018-11-29T02:00:08.515Z,18.05
2018-11-29T02:00:20.893Z,18.05
2018-11-29T02:00:33.280Z,18.05
2018-11-29T02:00:45.660Z,18.05
2018-11-29T02:00:58.075Z,18.05
2018-11-29T02:01:10.457Z,18.05
2018-11-29T02:01:22.844Z,18.05
2018-11-29T02:01:35.214Z,18.05
2018-11-29T02:01:47.558Z,18.05
2018-11-29T02:01:59.900Z,18.05
2018-11-29T02:02:12.273Z,18.05
2018-11-29T02:02:24.632Z,18.05
2018-11-29T02:02:36.993Z,18.05
2018-11-29T02:02:49.376Z,18.05
2018-11-29T02:03:02.400Z,18.05
2018-11-29T02:03:14.802Z,18.05
2018-11-29T02:03:27.155Z,18.05
2018-11-29T02:03:39.517Z,18.05
2018-11-29T02:03:51.882Z,18.05
2018-11-29T02:04:04.240Z,18.05
2018-11-29T02:04:16.606Z,18.05
2018-11-29T02:04:28.962Z,18.05
2018-11-29T02:04:41.483Z,18.05
2018-11-29T02:04:53.891Z,18.05
2018-11-29T02:05:06.258Z,18.05
2018-11-29T02:05:18.991Z,18.05
2018-11-29T02:05:31.346Z,18.05
2018-11-29T02:05:43.823Z,18.05
2018-11-29T02:05:56.182Z,18.05
2018-11-29T02:06:08.540Z,18.05
2018-11-29T02:06:21.010Z,18.05
2018-11-29T02:06:33.373Z,18.05
2018-11-29T02:06:45.757Z,18.05
2018-11-29T02:06:58.134Z,18.05
2018-11-29T02:07:10.538Z,18.05
2018-11-29T02:07:22.903Z,18.05
2018-11-29T02:07:35.259Z,18.05
2018-11-29T02:07:47.687Z,18.05
2018-11-29T02:08:00.055Z,18.05
2018-11-29T02:08:12.448Z,18.05
2018-11-29T02:08:24.817Z,18.05
2018-11-29T02:08:37.201Z,18.05
2018-11-29T02:08:49.558Z,18.05
2018-11-29T02:09:01.937Z,18.05
2018-11-29T02:09:14.297Z,18.05
2018-11-29T02:09:26.663Z,18.05
2018-11-29T02:09:39.042Z,15.05
2018-11-29T02:09:51.457Z,15.05
2018-11-29T02:10:03.813Z,15.05
2018-11-29T02:10:16.175Z,15.05
2018-11-29T02:10:28.656Z,15.05
2018-11-29T02:10:41.062Z,15.05
2018-11-29T02:10:53.446Z,15.05
2018-11-29T02:11:06.182Z,15.05
2018-11-29T02:11:18.543Z,15.05
2018-11-29T02:11:30.900Z,15.05
2018-11-29T02:11:43.257Z,15.05
2018-11-29T02:11:55.624Z,15.05
2018-11-29T02:12:07.972Z,15.05
2018-11-29T02:12:20.343Z,15.05
2018-11-29T02:12:32.697Z,15.05
2018-11-29T02:12:45.239Z,15.05
2018-11-29T02:12:57.614Z,15.05
2018-11-29T02:13:09.984Z,15.05
2018-11-29T02:13:22.341Z,15.05
2018-11-29T02:13:34.729Z,15.05
2018-11-29T02:13:47.083Z,15.05
2018-11-29T02:13:59.436Z,15.05
2018-11-29T02:14:11.797Z,15.05
2018-11-29T02:14:24.138Z,15.05
2018-11-29T02:14:36.507Z,15.05
2018-11-29T02:14:48.864Z,15.05
2018-11-29T02:15:01.234Z,15.05
2018-11-29T02:15:13.615Z,15.05
2018-11-29T02:15:26.004Z,15.05
2018-11-29T02:15:38.358Z,15.05
2018-11-29T02:15:50.760Z,15.05
2018-11-29T02:16:03.131Z,15.05
2018-11-29T02:16:15.510Z,15.05
2018-11-29T02:16:27.862Z,15.05
2018-11-29T02:16:40.235Z,15.05
2018-11-29T02:16:52.597Z,15.05
2018-11-29T02:17:04.965Z,15.05
2018-11-29T02:17:17.330Z,15.05
2018-11-29T02:17:29.707Z,15.05
2018-11-29T02:17:42.099Z,15.05
2018-11-29T02:17:54.484Z,15.05
2018-11-29T02:18:06.901Z,15.05
2018-11-29T02:18:19.277Z,15.05
2018-11-29T02:18:31.614Z,15.05
2018-11-29T02:18:43.964Z,15.05
2018-11-29T02:18:56.313Z,15.05
2018-11-29T02:19:08.668Z,15.05
2018-11-29T02:19:21.020Z,15.05
2018-11-29T02:19:33.391Z,15.47
2018-11-29T02:19:45.750Z,15.47
2018-11-29T02:19:58.137Z,15.47
2018-11-29T02:20:10.494Z,15.47
2018-11-29T02:20:22.859Z,15.47
2018-11-29T02:20:35.229Z,15.47
2018-11-29T02:20:47.611Z,15.47
2018-11-29T02:20:59.965Z,15.47
2018-11-29T02:21:12.332Z,15.47
2018-11-29T02:21:25.106Z,15.47
2018-11-29T02:21:37.474Z,15.47
2018-11-29T02:21:49.845Z,15.47
2018-11-29T02:22:02.208Z,15.47
2018-11-29T02:22:14.570Z,15.47
2018-11-29T02:22:26.935Z,15.47
2018-11-29T02:22:39.311Z,15.47
2018-11-29T02:22:51.980Z,15.47
2018-11-29T02:23:04.368Z,15.47
2018-11-29T02:23:16.884Z,15.47
2018-11-29T02:23:29.407Z,15.47
2018-11-29T02:23:41.804Z,15.47
2018-11-29T02:23:54.266Z,15.47
2018-11-29T02:24:06.621Z,15.47
2018-11-29T02:24:18.999Z,15.47
2018-11-29T02:24:31.364Z,15.47
2018-11-29T02:24:43.747Z,15.47
2018-11-29T02:24:56.116Z,15.47
2018-11-29T02:25:08.460Z,15.47
2018-11-29T02:25:20.810Z,15.47
2018-11-29T02:25:33.197Z,15.47
2018-11-29T02:25:45.561Z,15.47
2018-11-29T02:25:58.094Z,15.47
2018-11-29T02:26:10.443Z,15.47
2018-11-29T02:26:22.803Z,15.47
2018-11-29T02:26:35.302Z,15.47
2018-11-29T02:26:47.691Z,15.47
2018-11-29T02:27:00.059Z,15.47
2018-11-29T02:27:12.409Z,15.47
2018-11-29T02:27:24.816Z,15.47
2018-11-29T02:27:37.188Z,15.47
2018-11-29T02:27:49.736Z,15.47
2018-11-29T02:28:02.163Z,15.47
2018-11-29T02:28:14.528Z,15.47
2018-11-29T02:28:26.897Z,15.47
2018-11-29T02:28:39.263Z,15.47
2018-11-29T02:28:51.616Z,15.47
2018-11-29T02:29:03.984Z,15.47
2018-11-29T02:29:16.490Z,15.47
2018-11-29T02:29:28.855Z,15.96
2018-11-29T02:29:41.210Z,15.96
2018-11-29T02:29:53.576Z,15.96
2018-11-29T02:30:05.966Z,15.96
2018-11-29T02:30:18.397Z,15.96
2018-11-29T02:30:30.805Z,15.96
2018-11-29T02:30:43.199Z,15.96
2018-11-29T02:30:55.751Z,15.96
2018-11-29T02:31:08.148Z,15.96
2018-11-29T02:31:20.549Z,15.96
2018-11-29T02:31:32.925Z,15.96
2018-11-29T02:31:45.421Z,15.96
2018-11-29T02:31:57.811Z,15.96
2018-11-29T02:32:10.185Z,15.96
2018-11-29T02:32:22.563Z,15.96
2018-11-29T02:32:34.956Z,15.96
2018-11-29T02:32:47.367Z,15.96
2018-11-29T02:33:00.095Z,15.96
2018-11-29T02:33:12.500Z,15.96
2018-11-29T02:33:24.893Z,15.96
2018-11-29T02:33:37.296Z,15.96
2018-11-29T02:33:49.683Z,15.96
2018-11-29T02:34:02.067Z,15.96
2018-11-29T02:34:14.446Z,15.96
2018-11-29T02:34:26.831Z,15.96
2018-11-29T02:34:39.206Z,15.96
2018-11-29T02:34:51.671Z,15.96
2018-11-29T02:35:04.026Z,15.96
2018-11-29T02:35:16.445Z,15.96
2018-11-29T02:35:28.851Z,15.96
2018-11-29T02:35:41.248Z,15.96
2018-11-29T02:35:53.644Z,15.96
2018-11-29T02:36:06.036Z,15.96
2018-11-29T02:36:18.410Z,15.96
2018-11-29T02:36:30.770Z,15.96
2018-11-29T02:36:43.162Z,15.96
2018-11-29T02:36:55.561Z,15.96
2018-11-29T02:37:07.928Z,15.96
2018-11-29T02:37:20.279Z,15.96
2018-11-29T02:37:32.630Z,15.96
2018-11-29T02:37:45.068Z,15.96
2018-11-29T02:37:57.501Z,15.96
2018-11-29T02:38:09.874Z,15.96
2018-11-29T02:38:22.268Z,15.96
2018-11-29T02:38:34.650Z,15.96
2018-11-29T02:38:47.587Z,15.96
2018-11-29T02:38:59.957Z,15.96
2018-11-29T02:39:12.345Z,15.96
2018-11-29T02:39:24.730Z,15.96
2018-11-29T02:39:37.119Z,16
2018-11-29T02:39:49.512Z,16
2018-11-29T02:40:01.915Z,16